sensor_id;sensor_type;location;lat;lon;timestamp;P1;durP1;ratioP1;P2;durP2;ratioP2
63259;SDS011;49390;51.380;0.098;2024-03-06T00:01:22;18.42;;;10.00;;
63259;SDS011;49390;51.380;0.098;2024-03-06T00:03:50;20.00;;;9.82;;
63259;SDS011;49390;51.380;0.098;2024-03-06T00:06:18;18.65;;;10.07;;
63259;SDS011;49390;51.380;0.098;2024-03-06T00:08:45;17.20;;;9.40;;
63259;SDS011;49390;51.380;0.098;2024-03-06T00:21:02;16.35;;;9.32;;
63259;SDS011;49390;51.380;0.098;2024-03-06T00:23:30;20.95;;;11.20;;
63259;SDS011;49390;51.380;0.098;2024-03-06T00:25:58;17.48;;;10.20;;
63259;SDS011;49390;51.380;0.098;2024-03-06T00:28:26;16.92;;;9.63;;
63259;SDS011;49390;51.380;0.098;2024-03-06T00:30:54;18.45;;;9.98;;
63259;SDS011;49390;51.380;0.098;2024-03-06T00:33:22;20.42;;;10.10;;
63259;SDS011;49390;51.380;0.098;2024-03-06T00:35:50;19.30;;;9.98;;
63259;SDS011;49390;51.380;0.098;2024-03-06T00:38:18;20.63;;;10.50;;
63259;SDS011;49390;51.380;0.098;2024-03-06T00:40:46;19.83;;;9.60;;
63259;SDS011;49390;51.380;0.098;2024-03-06T00:43:14;20.77;;;10.80;;
63259;SDS011;49390;51.380;0.098;2024-03-06T00:45:42;22.00;;;11.02;;
63259;SDS011;49390;51.380;0.098;2024-03-06T00:48:10;20.38;;;10.65;;
63259;SDS011;49390;51.380;0.098;2024-03-06T00:50:37;19.23;;;10.85;;
63259;SDS011;49390;51.380;0.098;2024-03-06T00:53:06;18.30;;;9.50;;
63259;SDS011;49390;51.380;0.098;2024-03-06T00:55:34;18.63;;;10.20;;
63259;SDS011;49390;51.380;0.098;2024-03-06T00:58:02;21.30;;;10.95;;
63259;SDS011;49390;51.380;0.098;2024-03-06T01:00:30;19.23;;;10.48;;
63259;SDS011;49390;51.380;0.098;2024-03-06T01:02:58;21.92;;;10.77;;
63259;SDS011;49390;51.380;0.098;2024-03-06T01:05:25;18.73;;;10.88;;
63259;SDS011;49390;51.380;0.098;2024-03-06T01:07:54;25.13;;;12.07;;
63259;SDS011;49390;51.380;0.098;2024-03-06T01:10:23;23.02;;;11.63;;
63259;SDS011;49390;51.380;0.098;2024-03-06T01:12:51;23.02;;;11.60;;
63259;SDS011;49390;51.380;0.098;2024-03-06T01:15:19;24.15;;;11.48;;
63259;SDS011;49390;51.380;0.098;2024-03-06T01:17:47;24.70;;;12.43;;
63259;SDS011;49390;51.380;0.098;2024-03-06T01:20:15;22.33;;;11.43;;
63259;SDS011;49390;51.380;0.098;2024-03-06T01:22:43;26.23;;;13.05;;
63259;SDS011;49390;51.380;0.098;2024-03-06T01:25:13;24.75;;;13.32;;
63259;SDS011;49390;51.380;0.098;2024-03-06T01:27:41;23.80;;;11.93;;
63259;SDS011;49390;51.380;0.098;2024-03-06T01:30:09;26.83;;;12.88;;
63259;SDS011;49390;51.380;0.098;2024-03-06T01:32:37;26.55;;;12.18;;
63259;SDS011;49390;51.380;0.098;2024-03-06T01:35:04;22.00;;;11.73;;
63259;SDS011;49390;51.380;0.098;2024-03-06T01:37:34;20.73;;;11.32;;
63259;SDS011;49390;51.380;0.098;2024-03-06T01:40:02;22.73;;;11.85;;
63259;SDS011;49390;51.380;0.098;2024-03-06T01:42:31;21.13;;;9.68;;
63259;SDS011;49390;51.380;0.098;2024-03-06T01:44:59;21.05;;;10.27;;
63259;SDS011;49390;51.380;0.098;2024-03-06T01:47:27;21.52;;;10.88;;
63259;SDS011;49390;51.380;0.098;2024-03-06T01:49:55;22.15;;;11.75;;
63259;SDS011;49390;51.380;0.098;2024-03-06T01:52:23;23.48;;;12.00;;
63259;SDS011;49390;51.380;0.098;2024-03-06T01:54:51;26.70;;;12.80;;
63259;SDS011;49390;51.380;0.098;2024-03-06T01:57:19;27.73;;;12.95;;
63259;SDS011;49390;51.380;0.098;2024-03-06T01:59:47;24.90;;;12.85;;
63259;SDS011;49390;51.380;0.098;2024-03-06T02:02:16;23.63;;;12.10;;
63259;SDS011;49390;51.380;0.098;2024-03-06T02:04:44;21.83;;;11.05;;
63259;SDS011;49390;51.380;0.098;2024-03-06T02:07:12;21.52;;;10.70;;
63259;SDS011;49390;51.380;0.098;2024-03-06T02:09:41;19.33;;;9.95;;
63259;SDS011;49390;51.380;0.098;2024-03-06T02:12:10;15.75;;;8.27;;
63259;SDS011;49390;51.380;0.098;2024-03-06T02:14:38;14.95;;;8.27;;
63259;SDS011;49390;51.380;0.098;2024-03-06T02:17:06;17.95;;;8.15;;
63259;SDS011;49390;51.380;0.098;2024-03-06T02:19:38;17.23;;;9.32;;
63259;SDS011;49390;51.380;0.098;2024-03-06T02:22:11;15.32;;;8.98;;
63259;SDS011;49390;51.380;0.098;2024-03-06T02:24:42;17.48;;;9.00;;
63259;SDS011;49390;51.380;0.098;2024-03-06T02:27:12;18.70;;;9.20;;
63259;SDS011;49390;51.380;0.098;2024-03-06T02:29:40;16.63;;;9.18;;
63259;SDS011;49390;51.380;0.098;2024-03-06T02:32:08;18.85;;;9.75;;
63259;SDS011;49390;51.380;0.098;2024-03-06T02:34:36;19.00;;;9.30;;
63259;SDS011;49390;51.380;0.098;2024-03-06T02:37:04;18.15;;;9.38;;
63259;SDS011;49390;51.380;0.098;2024-03-06T02:39:31;17.02;;;9.18;;
63259;SDS011;49390;51.380;0.098;2024-03-06T02:41:59;21.50;;;10.00;;
63259;SDS011;49390;51.380;0.098;2024-03-06T02:44:27;19.17;;;9.60;;
63259;SDS011;49390;51.380;0.098;2024-03-06T02:46:55;19.98;;;10.23;;
63259;SDS011;49390;51.380;0.098;2024-03-06T02:49:23;18.73;;;10.02;;
63259;SDS011;49390;51.380;0.098;2024-03-06T02:51:51;19.55;;;9.95;;
63259;SDS011;49390;51.380;0.098;2024-03-06T02:54:18;22.95;;;10.75;;
63259;SDS011;49390;51.380;0.098;2024-03-06T02:56:47;20.95;;;10.00;;
63259;SDS011;49390;51.380;0.098;2024-03-06T02:59:14;20.38;;;10.35;;
63259;SDS011;49390;51.380;0.098;2024-03-06T03:01:42;24.92;;;11.30;;
63259;SDS011;49390;51.380;0.098;2024-03-06T03:04:10;22.05;;;10.68;;
63259;SDS011;49390;51.380;0.098;2024-03-06T03:06:38;21.70;;;11.13;;
63259;SDS011;49390;51.380;0.098;2024-03-06T03:09:06;24.35;;;11.52;;
63259;SDS011;49390;51.380;0.098;2024-03-06T03:11:34;26.05;;;12.07;;
63259;SDS011;49390;51.380;0.098;2024-03-06T03:14:02;22.40;;;11.18;;
63259;SDS011;49390;51.380;0.098;2024-03-06T03:16:31;22.98;;;11.20;;
63259;SDS011;49390;51.380;0.098;2024-03-06T03:18:59;21.25;;;11.30;;
63259;SDS011;49390;51.380;0.098;2024-03-06T03:21:27;24.70;;;12.23;;
63259;SDS011;49390;51.380;0.098;2024-03-06T03:23:55;24.20;;;12.38;;
63259;SDS011;49390;51.380;0.098;2024-03-06T03:26:23;26.35;;;12.52;;
63259;SDS011;49390;51.380;0.098;2024-03-06T03:28:51;25.92;;;12.25;;
63259;SDS011;49390;51.380;0.098;2024-03-06T03:31:19;23.10;;;11.13;;
63259;SDS011;49390;51.380;0.098;2024-03-06T03:33:48;20.70;;;9.63;;
63259;SDS011;49390;51.380;0.098;2024-03-06T03:36:16;20.25;;;9.57;;
63259;SDS011;49390;51.380;0.098;2024-03-06T03:38:44;24.20;;;11.85;;
63259;SDS011;49390;51.380;0.098;2024-03-06T03:41:12;22.95;;;11.32;;
63259;SDS011;49390;51.380;0.098;2024-03-06T03:43:41;25.25;;;12.20;;
63259;SDS011;49390;51.380;0.098;2024-03-06T03:46:09;24.58;;;12.20;;
63259;SDS011;49390;51.380;0.098;2024-03-06T03:48:37;26.00;;;11.82;;
63259;SDS011;49390;51.380;0.098;2024-03-06T03:51:05;23.98;;;12.30;;
63259;SDS011;49390;51.380;0.098;2024-03-06T03:53:34;26.25;;;12.38;;
63259;SDS011;49390;51.380;0.098;2024-03-06T03:56:03;26.90;;;13.18;;
63259;SDS011;49390;51.380;0.098;2024-03-06T03:58:31;26.88;;;12.98;;
63259;SDS011;49390;51.380;0.098;2024-03-06T04:00:59;27.73;;;12.07;;
63259;SDS011;49390;51.380;0.098;2024-03-06T04:03:27;24.10;;;11.65;;
63259;SDS011;49390;51.380;0.098;2024-03-06T04:05:55;24.02;;;11.95;;
63259;SDS011;49390;51.380;0.098;2024-03-06T04:08:22;30.60;;;13.48;;
63259;SDS011;49390;51.380;0.098;2024-03-06T04:10:51;22.25;;;11.73;;
63259;SDS011;49390;51.380;0.098;2024-03-06T04:13:18;27.27;;;13.63;;
63259;SDS011;49390;51.380;0.098;2024-03-06T04:15:47;27.23;;;12.32;;
63259;SDS011;49390;51.380;0.098;2024-03-06T04:18:15;27.80;;;12.82;;
63259;SDS011;49390;51.380;0.098;2024-03-06T04:20:43;27.30;;;12.80;;
63259;SDS011;49390;51.380;0.098;2024-03-06T04:23:11;28.77;;;13.55;;
63259;SDS011;49390;51.380;0.098;2024-03-06T04:25:39;29.35;;;13.43;;
63259;SDS011;49390;51.380;0.098;2024-03-06T04:28:08;29.42;;;14.07;;
63259;SDS011;49390;51.380;0.098;2024-03-06T04:30:36;26.08;;;13.05;;
63259;SDS011;49390;51.380;0.098;2024-03-06T04:33:03;26.45;;;12.68;;
63259;SDS011;49390;51.380;0.098;2024-03-06T04:35:32;31.17;;;14.32;;
63259;SDS011;49390;51.380;0.098;2024-03-06T04:38:00;28.10;;;13.45;;
63259;SDS011;49390;51.380;0.098;2024-03-06T04:42:58;26.05;;;13.40;;
63259;SDS011;49390;51.380;0.098;2024-03-06T04:45:27;27.40;;;13.65;;
63259;SDS011;49390;51.380;0.098;2024-03-06T04:47:58;33.03;;;14.82;;
63259;SDS011;49390;51.380;0.098;2024-03-06T04:50:26;30.15;;;14.30;;
63259;SDS011;49390;51.380;0.098;2024-03-06T04:52:54;30.40;;;14.18;;
63259;SDS011;49390;51.380;0.098;2024-03-06T04:55:23;29.85;;;14.60;;
63259;SDS011;49390;51.380;0.098;2024-03-06T04:57:52;32.05;;;14.30;;
63259;SDS011;49390;51.380;0.098;2024-03-06T05:00:21;26.88;;;13.30;;
63259;SDS011;49390;51.380;0.098;2024-03-06T05:02:49;29.85;;;14.13;;
63259;SDS011;49390;51.380;0.098;2024-03-06T05:05:34;30.70;;;14.20;;
63259;SDS011;49390;51.380;0.098;2024-03-06T05:08:19;32.38;;;14.93;;
63259;SDS011;49390;51.380;0.098;2024-03-06T05:11:05;33.00;;;15.02;;
63259;SDS011;49390;51.380;0.098;2024-03-06T05:13:51;28.65;;;13.50;;
63259;SDS011;49390;51.380;0.098;2024-03-06T05:16:36;30.80;;;14.82;;
63259;SDS011;49390;51.380;0.098;2024-03-06T05:19:21;26.83;;;13.73;;
63259;SDS011;49390;51.380;0.098;2024-03-06T05:22:07;29.92;;;14.43;;
63259;SDS011;49390;51.380;0.098;2024-03-06T05:24:52;27.30;;;13.65;;
63259;SDS011;49390;51.380;0.098;2024-03-06T05:27:38;25.65;;;13.43;;
63259;SDS011;49390;51.380;0.098;2024-03-06T05:30:23;30.60;;;13.93;;
63259;SDS011;49390;51.380;0.098;2024-03-06T05:33:09;27.83;;;13.63;;
63259;SDS011;49390;51.380;0.098;2024-03-06T05:35:55;27.02;;;14.00;;
63259;SDS011;49390;51.380;0.098;2024-03-06T05:38:41;37.13;;;14.20;;
63259;SDS011;49390;51.380;0.098;2024-03-06T05:41:26;26.67;;;13.90;;
63259;SDS011;49390;51.380;0.098;2024-03-06T05:44:12;32.90;;;15.07;;
63259;SDS011;49390;51.380;0.098;2024-03-06T05:46:58;30.30;;;14.15;;
63259;SDS011;49390;51.380;0.098;2024-03-06T05:49:44;26.60;;;13.60;;
63259;SDS011;49390;51.380;0.098;2024-03-06T05:52:29;32.10;;;14.38;;
63259;SDS011;49390;51.380;0.098;2024-03-06T05:55:15;29.58;;;14.27;;
63259;SDS011;49390;51.380;0.098;2024-03-06T05:58:00;30.25;;;13.82;;
63259;SDS011;49390;51.380;0.098;2024-03-06T06:00:41;29.75;;;14.05;;
63259;SDS011;49390;51.380;0.098;2024-03-06T06:03:10;29.17;;;14.38;;
63259;SDS011;49390;51.380;0.098;2024-03-06T06:05:39;29.60;;;14.23;;
63259;SDS011;49390;51.380;0.098;2024-03-06T06:08:07;30.33;;;14.55;;
63259;SDS011;49390;51.380;0.098;2024-03-06T06:10:35;30.45;;;14.30;;
63259;SDS011;49390;51.380;0.098;2024-03-06T06:13:03;36.47;;;14.00;;
63259;SDS011;49390;51.380;0.098;2024-03-06T06:15:32;33.25;;;14.13;;
63259;SDS011;49390;51.380;0.098;2024-03-06T06:18:00;30.33;;;13.60;;
63259;SDS011;49390;51.380;0.098;2024-03-06T06:20:28;30.20;;;14.00;;
63259;SDS011;49390;51.380;0.098;2024-03-06T06:22:56;30.35;;;13.75;;
63259;SDS011;49390;51.380;0.098;2024-03-06T06:25:24;32.65;;;15.50;;
63259;SDS011;49390;51.380;0.098;2024-03-06T06:27:51;32.17;;;14.90;;
63259;SDS011;49390;51.380;0.098;2024-03-06T06:30:19;29.42;;;14.45;;
63259;SDS011;49390;51.380;0.098;2024-03-06T06:32:47;31.70;;;13.95;;
63259;SDS011;49390;51.380;0.098;2024-03-06T06:35:15;31.67;;;14.77;;
63259;SDS011;49390;51.380;0.098;2024-03-06T06:37:44;33.80;;;14.98;;
63259;SDS011;49390;51.380;0.098;2024-03-06T06:40:12;30.38;;;13.63;;
63259;SDS011;49390;51.380;0.098;2024-03-06T06:42:44;30.30;;;14.32;;
63259;SDS011;49390;51.380;0.098;2024-03-06T06:45:18;29.88;;;13.85;;
63259;SDS011;49390;51.380;0.098;2024-03-06T06:47:47;33.85;;;16.23;;
63259;SDS011;49390;51.380;0.098;2024-03-06T06:50:16;35.47;;;15.82;;
63259;SDS011;49390;51.380;0.098;2024-03-06T06:52:44;36.55;;;16.13;;
63259;SDS011;49390;51.380;0.098;2024-03-06T06:55:12;35.70;;;15.65;;
63259;SDS011;49390;51.380;0.098;2024-03-06T06:57:40;32.53;;;15.32;;
63259;SDS011;49390;51.380;0.098;2024-03-06T07:00:09;33.30;;;15.07;;
63259;SDS011;49390;51.380;0.098;2024-03-06T07:02:38;36.85;;;15.93;;
63259;SDS011;49390;51.380;0.098;2024-03-06T07:05:09;36.85;;;16.25;;
63259;SDS011;49390;51.380;0.098;2024-03-06T07:07:38;40.53;;;18.25;;
63259;SDS011;49390;51.380;0.098;2024-03-06T07:10:06;40.90;;;18.35;;
63259;SDS011;49390;51.380;0.098;2024-03-06T07:12:35;41.15;;;17.73;;
63259;SDS011;49390;51.380;0.098;2024-03-06T07:15:03;42.88;;;18.40;;
63259;SDS011;49390;51.380;0.098;2024-03-06T07:17:32;40.38;;;17.38;;
63259;SDS011;49390;51.380;0.098;2024-03-06T07:20:00;41.28;;;17.67;;
63259;SDS011;49390;51.380;0.098;2024-03-06T07:22:28;42.50;;;19.05;;
63259;SDS011;49390;51.380;0.098;2024-03-06T07:24:56;43.78;;;17.95;;
63259;SDS011;49390;51.380;0.098;2024-03-06T07:27:23;41.88;;;17.67;;
63259;SDS011;49390;51.380;0.098;2024-03-06T07:29:51;45.00;;;19.75;;
63259;SDS011;49390;51.380;0.098;2024-03-06T07:32:19;44.45;;;18.80;;
63259;SDS011;49390;51.380;0.098;2024-03-06T07:34:47;43.13;;;18.05;;
63259;SDS011;49390;51.380;0.098;2024-03-06T07:37:15;51.20;;;20.38;;
63259;SDS011;49390;51.380;0.098;2024-03-06T07:39:44;47.60;;;20.48;;
63259;SDS011;49390;51.380;0.098;2024-03-06T07:42:14;48.38;;;19.92;;
63259;SDS011;49390;51.380;0.098;2024-03-06T07:44:42;46.78;;;18.95;;
63259;SDS011;49390;51.380;0.098;2024-03-06T07:47:10;43.13;;;17.63;;
63259;SDS011;49390;51.380;0.098;2024-03-06T07:49:39;43.63;;;19.60;;
63259;SDS011;49390;51.380;0.098;2024-03-06T07:52:07;48.88;;;20.13;;
63259;SDS011;49390;51.380;0.098;2024-03-06T07:54:35;49.33;;;20.23;;
63259;SDS011;49390;51.380;0.098;2024-03-06T07:57:03;46.22;;;19.23;;
63259;SDS011;49390;51.380;0.098;2024-03-06T07:59:31;47.40;;;19.70;;
63259;SDS011;49390;51.380;0.098;2024-03-06T08:01:59;50.78;;;20.17;;
63259;SDS011;49390;51.380;0.098;2024-03-06T08:04:29;45.40;;;18.98;;
63259;SDS011;49390;51.380;0.098;2024-03-06T08:06:57;44.60;;;18.73;;
63259;SDS011;49390;51.380;0.098;2024-03-06T08:09:25;49.85;;;18.65;;
63259;SDS011;49390;51.380;0.098;2024-03-06T08:11:55;45.50;;;18.08;;
63259;SDS011;49390;51.380;0.098;2024-03-06T08:14:23;48.15;;;20.90;;
63259;SDS011;49390;51.380;0.098;2024-03-06T08:16:53;48.28;;;19.73;;
63259;SDS011;49390;51.380;0.098;2024-03-06T08:19:21;42.30;;;18.33;;
63259;SDS011;49390;51.380;0.098;2024-03-06T08:21:52;46.47;;;20.17;;
63259;SDS011;49390;51.380;0.098;2024-03-06T08:24:19;48.35;;;19.98;;
63259;SDS011;49390;51.380;0.098;2024-03-06T08:26:47;49.08;;;19.75;;
63259;SDS011;49390;51.380;0.098;2024-03-06T08:29:16;52.25;;;19.90;;
63259;SDS011;49390;51.380;0.098;2024-03-06T08:31:44;58.08;;;23.25;;
63259;SDS011;49390;51.380;0.098;2024-03-06T08:34:12;53.83;;;19.98;;
63259;SDS011;49390;51.380;0.098;2024-03-06T08:36:40;48.15;;;19.95;;
63259;SDS011;49390;51.380;0.098;2024-03-06T08:39:08;55.78;;;18.10;;
63259;SDS011;49390;51.380;0.098;2024-03-06T08:41:39;47.20;;;18.95;;
63259;SDS011;49390;51.380;0.098;2024-03-06T08:44:07;51.80;;;19.67;;
63259;SDS011;49390;51.380;0.098;2024-03-06T08:46:35;54.90;;;21.55;;
63259;SDS011;49390;51.380;0.098;2024-03-06T08:52:32;56.22;;;21.15;;
63259;SDS011;49390;51.380;0.098;2024-03-06T08:55:02;53.25;;;19.92;;
63259;SDS011;49390;51.380;0.098;2024-03-06T08:57:34;52.08;;;22.02;;
63259;SDS011;49390;51.380;0.098;2024-03-06T09:00:03;52.28;;;20.33;;
63259;SDS011;49390;51.380;0.098;2024-03-06T09:02:31;50.10;;;19.27;;
63259;SDS011;49390;51.380;0.098;2024-03-06T09:04:59;53.00;;;20.02;;
63259;SDS011;49390;51.380;0.098;2024-03-06T09:07:27;50.40;;;20.48;;
63259;SDS011;49390;51.380;0.098;2024-03-06T09:09:55;49.03;;;19.52;;
63259;SDS011;49390;51.380;0.098;2024-03-06T09:12:23;49.60;;;19.85;;
63259;SDS011;49390;51.380;0.098;2024-03-06T09:14:51;52.67;;;21.30;;
63259;SDS011;49390;51.380;0.098;2024-03-06T09:17:19;54.55;;;20.60;;
63259;SDS011;49390;51.380;0.098;2024-03-06T09:19:47;52.25;;;20.05;;
63259;SDS011;49390;51.380;0.098;2024-03-06T09:22:34;53.28;;;19.77;;
63259;SDS011;49390;51.380;0.098;2024-03-06T09:25:06;51.65;;;19.58;;
63259;SDS011;49390;51.380;0.098;2024-03-06T09:27:35;53.00;;;19.77;;
63259;SDS011;49390;51.380;0.098;2024-03-06T09:30:02;47.17;;;18.08;;
63259;SDS011;49390;51.380;0.098;2024-03-06T09:32:31;46.40;;;17.77;;
63259;SDS011;49390;51.380;0.098;2024-03-06T09:35:00;51.70;;;18.10;;
63259;SDS011;49390;51.380;0.098;2024-03-06T09:37:28;43.88;;;17.92;;
63259;SDS011;49390;51.380;0.098;2024-03-06T09:39:55;46.63;;;18.95;;
63259;SDS011;49390;51.380;0.098;2024-03-06T09:42:24;48.90;;;18.92;;
63259;SDS011;49390;51.380;0.098;2024-03-06T09:44:52;44.65;;;16.80;;
63259;SDS011;49390;51.380;0.098;2024-03-06T09:47:21;44.22;;;17.83;;
63259;SDS011;49390;51.380;0.098;2024-03-06T09:49:54;42.08;;;17.48;;
63259;SDS011;49390;51.380;0.098;2024-03-06T09:52:23;40.60;;;16.40;;
63259;SDS011;49390;51.380;0.098;2024-03-06T09:54:54;36.80;;;15.52;;
63259;SDS011;49390;51.380;0.098;2024-03-06T09:57:23;39.30;;;16.00;;
63259;SDS011;49390;51.380;0.098;2024-03-06T09:59:51;34.38;;;15.60;;
63259;SDS011;49390;51.380;0.098;2024-03-06T10:02:36;35.38;;;15.10;;
63259;SDS011;49390;51.380;0.098;2024-03-06T10:05:19;36.70;;;15.68;;
63259;SDS011;49390;51.380;0.098;2024-03-06T10:07:49;33.20;;;14.68;;
63259;SDS011;49390;51.380;0.098;2024-03-06T10:10:19;28.38;;;12.85;;
63259;SDS011;49390;51.380;0.098;2024-03-06T10:12:50;32.60;;;14.13;;
63259;SDS011;49390;51.380;0.098;2024-03-06T10:15:18;33.95;;;14.43;;
63259;SDS011;49390;51.380;0.098;2024-03-06T10:17:46;33.50;;;14.00;;
63259;SDS011;49390;51.380;0.098;2024-03-06T10:20:18;31.65;;;13.48;;
63259;SDS011;49390;51.380;0.098;2024-03-06T10:22:48;30.60;;;13.43;;
63259;SDS011;49390;51.380;0.098;2024-03-06T10:25:25;29.80;;;12.38;;
63259;SDS011;49390;51.380;0.098;2024-03-06T10:30:41;31.75;;;13.70;;
63259;SDS011;49390;51.380;0.098;2024-03-06T10:33:13;27.10;;;11.18;;
63259;SDS011;49390;51.380;0.098;2024-03-06T10:35:43;28.02;;;12.20;;
63259;SDS011;49390;51.380;0.098;2024-03-06T10:38:12;25.23;;;11.55;;
63259;SDS011;49390;51.380;0.098;2024-03-06T10:40:41;27.48;;;11.48;;
63259;SDS011;49390;51.380;0.098;2024-03-06T10:43:10;30.27;;;11.98;;
63259;SDS011;49390;51.380;0.098;2024-03-06T10:45:40;29.77;;;13.48;;
63259;SDS011;49390;51.380;0.098;2024-03-06T10:48:19;28.50;;;12.68;;
63259;SDS011;49390;51.380;0.098;2024-03-06T10:53:17;27.02;;;10.98;;
63259;SDS011;49390;51.380;0.098;2024-03-06T10:55:50;32.42;;;13.98;;
63259;SDS011;49390;51.380;0.098;2024-03-06T10:58:19;28.55;;;11.85;;
63259;SDS011;49390;51.380;0.098;2024-03-06T11:00:48;31.55;;;12.82;;
63259;SDS011;49390;51.380;0.098;2024-03-06T11:03:17;25.08;;;10.85;;
63259;SDS011;49390;51.380;0.098;2024-03-06T11:05:45;26.75;;;11.38;;
63259;SDS011;49390;51.380;0.098;2024-03-06T11:08:15;27.30;;;11.90;;
63259;SDS011;49390;51.380;0.098;2024-03-06T11:10:44;32.85;;;12.95;;
63259;SDS011;49390;51.380;0.098;2024-03-06T11:13:22;29.85;;;12.15;;
63259;SDS011;49390;51.380;0.098;2024-03-06T11:15:53;24.85;;;11.05;;
63259;SDS011;49390;51.380;0.098;2024-03-06T11:23:32;23.90;;;11.05;;
63259;SDS011;49390;51.380;0.098;2024-03-06T11:26:03;27.60;;;12.50;;
63259;SDS011;49390;51.380;0.098;2024-03-06T11:28:33;26.85;;;12.80;;
63259;SDS011;49390;51.380;0.098;2024-03-06T11:31:04;33.40;;;13.43;;
63259;SDS011;49390;51.380;0.098;2024-03-06T11:33:43;23.27;;;11.10;;
63259;SDS011;49390;51.380;0.098;2024-03-06T11:36:25;24.52;;;11.35;;
63259;SDS011;49390;51.380;0.098;2024-03-06T11:38:56;20.35;;;9.52;;
63259;SDS011;49390;51.380;0.098;2024-03-06T11:41:31;21.60;;;9.57;;
63259;SDS011;49390;51.380;0.098;2024-03-06T11:44:05;21.10;;;10.05;;
63259;SDS011;49390;51.380;0.098;2024-03-06T11:49:27;22.40;;;10.52;;
63259;SDS011;49390;51.380;0.098;2024-03-06T11:51:57;20.50;;;9.45;;
63259;SDS011;49390;51.380;0.098;2024-03-06T11:54:26;20.58;;;9.82;;
63259;SDS011;49390;51.380;0.098;2024-03-06T11:56:56;18.90;;;10.15;;
63259;SDS011;49390;51.380;0.098;2024-03-06T11:59:28;16.25;;;8.20;;
63259;SDS011;49390;51.380;0.098;2024-03-06T12:01:58;18.10;;;8.57;;
63259;SDS011;49390;51.380;0.098;2024-03-06T12:04:30;16.08;;;7.95;;
63259;SDS011;49390;51.380;0.098;2024-03-06T12:07:00;15.98;;;8.07;;
63259;SDS011;49390;51.380;0.098;2024-03-06T12:09:35;17.17;;;8.32;;
63259;SDS011;49390;51.380;0.098;2024-03-06T12:12:09;19.05;;;9.55;;
63259;SDS011;49390;51.380;0.098;2024-03-06T12:14:39;21.70;;;10.45;;
63259;SDS011;49390;51.380;0.098;2024-03-06T12:17:11;18.80;;;8.85;;
63259;SDS011;49390;51.380;0.098;2024-03-06T12:19:44;20.33;;;9.13;;
63259;SDS011;49390;51.380;0.098;2024-03-06T12:22:13;15.75;;;7.97;;
63259;SDS011;49390;51.380;0.098;2024-03-06T12:24:42;17.00;;;8.32;;
63259;SDS011;49390;51.380;0.098;2024-03-06T12:27:11;18.17;;;8.45;;
63259;SDS011;49390;51.380;0.098;2024-03-06T12:29:40;16.83;;;8.50;;
63259;SDS011;49390;51.380;0.098;2024-03-06T12:32:16;16.42;;;8.85;;
63259;SDS011;49390;51.380;0.098;2024-03-06T12:34:56;21.42;;;9.40;;
63259;SDS011;49390;51.380;0.098;2024-03-06T12:37:35;21.20;;;9.38;;
63259;SDS011;49390;51.380;0.098;2024-03-06T12:40:03;41.58;;;22.92;;
63259;SDS011;49390;51.380;0.098;2024-03-06T12:42:32;22.10;;;10.77;;
63259;SDS011;49390;51.380;0.098;2024-03-06T12:45:00;20.65;;;10.68;;
63259;SDS011;49390;51.380;0.098;2024-03-06T12:47:30;17.88;;;9.93;;
63259;SDS011;49390;51.380;0.098;2024-03-06T12:49:59;18.15;;;9.23;;
63259;SDS011;49390;51.380;0.098;2024-03-06T12:52:26;16.33;;;9.25;;
63259;SDS011;49390;51.380;0.098;2024-03-06T12:54:54;18.65;;;9.65;;
63259;SDS011;49390;51.380;0.098;2024-03-06T12:57:22;18.88;;;9.32;;
63259;SDS011;49390;51.380;0.098;2024-03-06T12:59:50;17.65;;;8.40;;
63259;SDS011;49390;51.380;0.098;2024-03-06T13:02:18;14.32;;;8.40;;
63259;SDS011;49390;51.380;0.098;2024-03-06T13:04:46;19.30;;;9.50;;
63259;SDS011;49390;51.380;0.098;2024-03-06T13:07:14;18.63;;;8.80;;
63259;SDS011;49390;51.380;0.098;2024-03-06T13:09:42;17.77;;;9.13;;
63259;SDS011;49390;51.380;0.098;2024-03-06T13:12:10;17.83;;;8.75;;
63259;SDS011;49390;51.380;0.098;2024-03-06T13:14:38;15.85;;;7.63;;
63259;SDS011;49390;51.380;0.098;2024-03-06T13:17:06;15.98;;;7.90;;
63259;SDS011;49390;51.380;0.098;2024-03-06T13:19:35;17.45;;;7.85;;
63259;SDS011;49390;51.380;0.098;2024-03-06T13:22:02;15.52;;;7.78;;
63259;SDS011;49390;51.380;0.098;2024-03-06T13:24:32;16.70;;;9.10;;
63259;SDS011;49390;51.380;0.098;2024-03-06T13:27:00;15.82;;;8.57;;
63259;SDS011;49390;51.380;0.098;2024-03-06T13:29:28;16.52;;;7.75;;
63259;SDS011;49390;51.380;0.098;2024-03-06T13:31:57;14.57;;;7.55;;
63259;SDS011;49390;51.380;0.098;2024-03-06T13:34:24;14.10;;;7.35;;
63259;SDS011;49390;51.380;0.098;2024-03-06T13:36:52;13.82;;;7.07;;
63259;SDS011;49390;51.380;0.098;2024-03-06T13:39:21;16.77;;;8.80;;
63259;SDS011;49390;51.380;0.098;2024-03-06T13:41:49;13.80;;;7.50;;
63259;SDS011;49390;51.380;0.098;2024-03-06T13:44:18;16.23;;;7.22;;
63259;SDS011;49390;51.380;0.098;2024-03-06T13:46:46;12.15;;;6.90;;
63259;SDS011;49390;51.380;0.098;2024-03-06T13:49:33;15.63;;;7.90;;
63259;SDS011;49390;51.380;0.098;2024-03-06T13:52:03;16.45;;;8.45;;
63259;SDS011;49390;51.380;0.098;2024-03-06T13:54:35;17.17;;;9.68;;
63259;SDS011;49390;51.380;0.098;2024-03-06T13:57:05;19.30;;;9.40;;
63259;SDS011;49390;51.380;0.098;2024-03-06T13:59:34;18.73;;;10.07;;
63259;SDS011;49390;51.380;0.098;2024-03-06T14:02:02;18.50;;;10.02;;
63259;SDS011;49390;51.380;0.098;2024-03-06T14:04:31;17.98;;;9.23;;
63259;SDS011;49390;51.380;0.098;2024-03-06T14:06:59;19.85;;;9.23;;
63259;SDS011;49390;51.380;0.098;2024-03-06T14:09:27;16.08;;;9.30;;
63259;SDS011;49390;51.380;0.098;2024-03-06T14:11:55;19.23;;;8.55;;
63259;SDS011;49390;51.380;0.098;2024-03-06T14:14:25;21.73;;;9.60;;
63259;SDS011;49390;51.380;0.098;2024-03-06T14:16:53;22.02;;;10.23;;
63259;SDS011;49390;51.380;0.098;2024-03-06T14:19:21;17.73;;;8.82;;
63259;SDS011;49390;51.380;0.098;2024-03-06T14:21:49;18.67;;;10.02;;
63259;SDS011;49390;51.380;0.098;2024-03-06T14:24:17;23.02;;;11.65;;
63259;SDS011;49390;51.380;0.098;2024-03-06T14:26:46;31.25;;;15.07;;
63259;SDS011;49390;51.380;0.098;2024-03-06T14:29:14;24.48;;;11.77;;
63259;SDS011;49390;51.380;0.098;2024-03-06T14:31:42;22.58;;;11.13;;
63259;SDS011;49390;51.380;0.098;2024-03-06T14:34:10;18.13;;;9.48;;
63259;SDS011;49390;51.380;0.098;2024-03-06T14:36:38;17.48;;;8.65;;
63259;SDS011;49390;51.380;0.098;2024-03-06T14:39:06;18.23;;;8.48;;
63259;SDS011;49390;51.380;0.098;2024-03-06T14:41:36;14.80;;;7.70;;
63259;SDS011;49390;51.380;0.098;2024-03-06T14:44:04;16.10;;;7.43;;
63259;SDS011;49390;51.380;0.098;2024-03-06T14:46:32;17.13;;;8.32;;
63259;SDS011;49390;51.380;0.098;2024-03-06T14:51:13;16.17;;;8.25;;
63259;SDS011;49390;51.380;0.098;2024-03-06T14:53:42;14.95;;;7.60;;
63259;SDS011;49390;51.380;0.098;2024-03-06T14:56:10;16.52;;;7.70;;
63259;SDS011;49390;51.380;0.098;2024-03-06T14:58:38;12.93;;;6.80;;
63259;SDS011;49390;51.380;0.098;2024-03-06T15:01:06;10.02;;;5.38;;
63259;SDS011;49390;51.380;0.098;2024-03-06T15:03:34;11.00;;;5.50;;
63259;SDS011;49390;51.380;0.098;2024-03-06T15:06:02;11.13;;;6.30;;
63259;SDS011;49390;51.380;0.098;2024-03-06T15:08:30;11.82;;;6.30;;
63259;SDS011;49390;51.380;0.098;2024-03-06T15:10:58;13.80;;;7.15;;
63259;SDS011;49390;51.380;0.098;2024-03-06T15:13:26;14.00;;;7.40;;